createdAt,value
2023-03-16T00:01:15.555Z,97873.47
2023-03-16T00:06:18.765Z,97862.25
2023-03-16T00:11:22.241Z,97876.25
2023-03-16T00:16:26.990Z,97875.41
2023-03-16T00:21:32.096Z,97873.84
2023-03-16T00:26:35.602Z,97884.94
2023-03-16T00:31:43.961Z,97881.72
2023-03-16T00:36:47.399Z,97881.00
2023-03-16T00:41:50.611Z,97872.34
2023-03-16T00:46:55.261Z,97873.22
2023-03-16T00:51:58.430Z,97876.13
2023-03-16T00:57:02.170Z,97864.06
2023-03-16T01:02:07.970Z,97865.63
2023-03-16T01:07:13.762Z,97860.69
2023-03-16T01:12:19.262Z,97871.06
2023-03-16T01:17:24.244Z,97863.31
2023-03-16T01:22:28.667Z,97868.34
2023-03-16T01:27:31.932Z,97874.50
2023-03-16T01:32:36.620Z,97861.72
2023-03-16T01:37:40.097Z,97866.97
2023-03-16T01:43:00.452Z,97851.53
2023-03-16T01:48:06.438Z,97856.75
2023-03-16T01:53:10.028Z,97849.53
2023-03-16T01:58:14.565Z,97856.16
2023-03-16T02:03:21.676Z,97857.09
2023-03-16T02:08:43.583Z,97844.38
2023-03-16T02:13:47.738Z,97830.53
2023-03-16T02:18:53.404Z,97830.63
2023-03-16T02:23:57.010Z,97826.41
2023-03-16T02:29:15.346Z,97823.97
2023-03-16T02:34:21.853Z,97827.31
2023-03-16T02:39:25.559Z,97831.75
2023-03-16T02:44:34.279Z,97826.63
2023-03-16T02:49:44.829Z,97831.78
2023-03-16T02:54:48.064Z,97843.03
2023-03-16T02:59:51.944Z,97840.50
2023-03-16T03:04:56.582Z,97846.41
2023-03-16T03:10:05.938Z,97837.00
2023-03-16T03:15:10.291Z,97839.59
2023-03-16T03:20:25.683Z,97833.72
2023-03-16T03:25:30.347Z,97824.19
2023-03-16T03:30:33.764Z,97831.25
2023-03-16T03:35:38.839Z,97817.50
2023-03-16T03:40:42.176Z,97821.84
2023-03-16T03:45:45.565Z,97820.22
2023-03-16T03:50:51.112Z,97818.44
2023-03-16T03:56:13.084Z,97817.63
2023-03-16T04:01:16.845Z,97809.97
2023-03-16T04:06:21.532Z,97801.41
2023-03-16T04:11:24.975Z,97804.16
2023-03-16T04:16:29.166Z,97797.22
2023-03-16T04:21:35.617Z,97803.34
2023-03-16T04:26:39.136Z,97812.84
2023-03-16T04:31:43.221Z,97808.50
2023-03-16T04:36:48.354Z,97800.69
2023-03-16T04:41:51.952Z,97808.69
2023-03-16T04:46:59.887Z,97805.25
2023-03-16T04:52:12.220Z,97797.47
2023-03-16T04:57:19.463Z,97803.75
2023-03-16T05:02:26.073Z,97798.50
2023-03-16T05:07:32.428Z,97797.50
2023-03-16T05:12:36.139Z,97801.97
2023-03-16T05:17:43.110Z,97798.47
2023-03-16T05:22:50.068Z,97793.38
2023-03-16T05:28:06.551Z,97797.72
2023-03-16T05:33:21.704Z,97794.22
2023-03-16T05:38:32.158Z,97806.31
2023-03-16T05:43:36.055Z,97802.81
2023-03-16T05:48:39.634Z,97800.09
2023-03-16T05:53:46.984Z,97802.81
2023-03-16T05:59:00.424Z,97801.78
2023-03-16T06:04:05.472Z,97803.47
2023-03-16T06:09:13.649Z,97798.06
2023-03-16T06:14:18.231Z,97796.78
2023-03-16T06:19:22.548Z,97796.72
2023-03-16T06:24:32.359Z,97800.16
2023-03-16T06:29:35.590Z,97797.94
2023-03-16T06:34:41.743Z,97812.00
2023-03-16T06:39:47.043Z,97810.78
2023-03-16T06:44:51.320Z,97812.69
2023-03-16T06:49:55.407Z,97805.63
2023-03-16T06:55:03.126Z,97808.31
2023-03-16T07:00:11.276Z,97806.53
2023-03-16T07:05:14.737Z,97796.06
2023-03-16T07:10:20.290Z,97795.97
2023-03-16T07:15:26.610Z,97800.41
2023-03-16T07:20:33.258Z,97802.47
2023-03-16T07:25:41.693Z,97798.19
2023-03-16T07:31:02.460Z,97802.81
2023-03-16T07:36:10.906Z,97796.44
2023-03-16T07:41:21.963Z,97805.31
2023-03-16T07:46:25.817Z,97805.84
2023-03-16T07:51:29.454Z,97806.25
2023-03-16T07:56:47.779Z,97802.31
2023-03-16T08:02:05.288Z,97800.19
2023-03-16T08:07:09.105Z,97796.31
2023-03-16T08:12:29.441Z,97781.50
2023-03-16T08:17:34.305Z,97783.88
2023-03-16T08:22:41.180Z,97792.25
2023-03-16T08:27:46.329Z,97793.81
2023-03-16T08:32:51.191Z,97773.56
2023-03-16T08:37:55.061Z,97781.63
2023-03-16T08:43:01.889Z,97786.34
2023-03-16T08:48:07.622Z,97793.78
2023-03-16T08:53:14.165Z,97796.50
2023-03-16T08:58:20.046Z,97800.72
2023-03-16T09:03:23.406Z,97807.06
2023-03-16T09:08:27.171Z,97808.97
2023-03-16T09:13:32.969Z,97803.97
2023-03-16T09:18:37.306Z,97819.00
2023-03-16T09:23:43.210Z,97814.72
2023-03-16T09:28:49.467Z,97816.72
2023-03-16T09:33:52.800Z,97806.91
2023-03-16T09:38:56.295Z,97818.41
2023-03-16T09:44:11.765Z,97814.47
2023-03-16T09:49:19.938Z,97815.47
2023-03-16T09:54:32.845Z,97813.53
2023-03-16T09:59:38.299Z,97815.50
2023-03-16T10:04:52.250Z,97818.09
2023-03-16T10:09:59.134Z,97811.59
2023-03-16T10:15:12.676Z,97812.16
2023-03-16T10:20:19.281Z,97810.16
2023-03-16T10:25:27.114Z,97800.53
2023-03-16T10:30:35.379Z,97802.97
2023-03-16T10:35:47.020Z,97803.09
2023-03-16T10:40:54.202Z,97806.66
2023-03-16T10:46:03.434Z,97807.22
2023-03-16T10:51:13.013Z,97802.16
2023-03-16T10:56:24.237Z,97795.25
2023-03-16T11:01:30.625Z,97788.53
2023-03-16T11:06:34.744Z,97788.00
2023-03-16T11:11:38.374Z,97786.22
2023-03-16T11:16:47.963Z,97776.25
2023-03-16T11:21:55.432Z,97757.38
2023-03-16T11:27:06.083Z,97758.25
2023-03-16T11:32:15.838Z,97732.34
2023-03-16T11:37:34.118Z,97735.22
2023-03-16T11:42:43.268Z,97723.31
2023-03-16T11:48:17.081Z,97715.28
2023-03-16T11:53:33.750Z,97705.25
2023-03-16T11:58:52.394Z,97688.00
2023-03-16T12:04:10.436Z,97700.63
2023-03-16T12:09:38.088Z,97690.75
2023-03-16T12:14:45.895Z,97685.56
2023-03-16T12:19:55.245Z,97682.19
2023-03-16T12:24:59.155Z,97687.44
2023-03-16T12:30:15.381Z,97671.16
2023-03-16T12:35:34.069Z,97655.88
2023-03-16T12:40:46.544Z,97655.16
2023-03-16T12:45:58.360Z,97653.19
2023-03-16T12:51:05.729Z,97641.47
2023-03-16T12:56:13.497Z,97635.97
2023-03-16T13:01:20.157Z,97637.34
2023-03-16T13:06:26.223Z,97632.94
2023-03-16T13:11:29.949Z,97630.16
2023-03-16T13:16:36.539Z,97629.13
2023-03-16T13:21:43.378Z,97641.75
2023-03-16T13:26:50.275Z,97642.94
2023-03-16T13:31:55.863Z,97639.66
2023-03-16T13:37:02.895Z,97624.41
2023-03-16T13:42:18.090Z,97623.06
2023-03-16T13:47:21.974Z,97603.94
2023-03-16T13:52:30.843Z,97595.19
2023-03-16T13:57:39.998Z,97591.38
2023-03-16T14:02:45.130Z,97583.31
2023-03-16T14:07:52.297Z,97592.41
2023-03-16T14:12:58.062Z,97580.97
2023-03-16T14:18:14.515Z,97580.66
2023-03-16T14:23:24.682Z,97576.03
2023-03-16T14:28:32.972Z,97568.88
2023-03-16T14:33:40.265Z,97556.44
2023-03-16T14:38:48.685Z,97554.19
2023-03-16T14:43:56.354Z,97553.59
2023-03-16T14:49:09.180Z,97535.75
2023-03-16T14:54:17.247Z,97545.81
2023-03-16T14:59:22.317Z,97542.09
2023-03-16T15:04:31.228Z,97535.88
2023-03-16T15:09:40.113Z,97538.41
2023-03-16T15:15:01.372Z,97524.91
2023-03-16T15:20:07.301Z,97533.38
2023-03-16T15:25:23.174Z,97532.81
2023-03-16T15:30:28.841Z,97520.59
2023-03-16T15:35:32.430Z,97509.94
2023-03-16T15:40:37.982Z,97498.34
2023-03-16T15:45:41.412Z,97504.94
2023-03-16T15:50:52.310Z,97513.31
2023-03-16T15:56:01.320Z,97511.94
2023-03-16T16:01:09.031Z,97512.56
2023-03-16T16:06:13.253Z,97512.19
2023-03-16T16:11:20.788Z,97498.09
2023-03-16T16:16:24.024Z,97493.03
2023-03-16T16:21:30.954Z,97487.16
2023-03-16T16:26:49.848Z,97485.66
2023-03-16T16:31:55.622Z,97485.00
2023-03-16T16:36:59.245Z,97476.75
2023-03-16T16:42:04.112Z,97470.28
2023-03-16T16:47:22.573Z,97467.06
2023-03-16T16:52:26.798Z,97466.06
2023-03-16T16:57:31.826Z,97473.75
2023-03-16T17:02:44.867Z,97463.97
2023-03-16T17:07:48.564Z,97467.94
2023-03-16T17:12:56.094Z,97479.59
2023-03-16T17:18:04.317Z,97478.09
2023-03-16T17:23:24.997Z,97473.94
2023-03-16T17:28:32.892Z,97470.09
2023-03-16T17:33:36.261Z,97447.41
2023-03-16T17:38:40.034Z,97461.41
2023-03-16T17:43:45.806Z,97456.19
2023-03-16T17:48:51.013Z,97457.38
2023-03-16T17:53:56.065Z,97444.38
2023-03-16T17:59:04.725Z,97438.28
2023-03-16T18:04:16.646Z,97431.13
2023-03-16T18:09:21.550Z,97421.59
2023-03-16T18:14:36.280Z,97418.28
2023-03-16T18:19:40.033Z,97419.41
2023-03-16T18:24:43.808Z,97415.47
2023-03-16T18:29:48.897Z,97408.03
2023-03-16T18:34:53.967Z,97391.94
2023-03-16T18:39:57.420Z,97405.44
2023-03-16T18:45:03.023Z,97381.84
2023-03-16T18:50:07.824Z,97372.97
2023-03-16T18:55:17.287Z,97371.91
2023-03-16T19:00:24.473Z,97378.69
2023-03-16T19:05:33.830Z,97379.88
2023-03-16T19:10:42.644Z,97357.38
2023-03-16T19:15:49.992Z,97377.66
2023-03-16T19:20:55.004Z,97365.84
2023-03-16T19:25:59.055Z,97352.03
2023-03-16T19:31:08.493Z,97380.81
2023-03-16T19:36:19.267Z,97353.06
2023-03-16T19:41:26.942Z,97362.06
2023-03-16T19:46:32.157Z,97349.94
2023-03-16T19:51:35.613Z,97347.94
2023-03-16T19:56:38.910Z,97344.91
2023-03-16T20:01:44.217Z,97358.78
2023-03-16T20:06:49.874Z,97353.69
2023-03-16T20:11:53.468Z,97347.16
2023-03-16T20:16:58.661Z,97352.13
2023-03-16T20:22:02.025Z,97351.66
2023-03-16T20:27:05.632Z,97348.56
2023-03-16T20:32:18.500Z,97348.25
2023-03-16T20:37:25.407Z,97347.31
2023-03-16T20:42:32.232Z,97350.63
2023-03-16T20:47:37.742Z,97347.41
2023-03-16T20:52:41.495Z,97343.19
2023-03-16T20:57:47.502Z,97337.19
2023-03-16T21:02:53.729Z,97329.66
2023-03-16T21:07:57.598Z,97316.47
2023-03-16T21:13:01.719Z,97328.56
2023-03-16T21:18:09.091Z,97329.66
2023-03-16T21:23:15.539Z,97311.38
2023-03-16T21:28:22.238Z,97310.44
2023-03-16T21:33:31.641Z,97315.94
2023-03-16T21:38:35.179Z,97322.34
2023-03-16T21:43:39.304Z,97309.72
2023-03-16T21:48:44.743Z,97306.28
2023-03-16T21:53:49.889Z,97305.81
2023-03-16T21:58:55.074Z,97292.03
2023-03-16T22:04:03.870Z,97297.50
2023-03-16T22:09:08.699Z,97293.72
2023-03-16T22:14:11.955Z,97292.59
2023-03-16T22:19:17.842Z,97287.53
2023-03-16T22:24:24.811Z,97281.09
2023-03-16T22:29:30.152Z,97278.19
2023-03-16T22:34:42.311Z,97275.94
2023-03-16T22:39:45.699Z,97279.38
2023-03-16T22:44:48.887Z,97267.28
2023-03-16T22:49:53.950Z,97259.75
2023-03-16T22:54:57.805Z,97243.50
2023-03-16T23:00:07.117Z,97250.44
2023-03-16T23:05:24.644Z,97249.63
2023-03-16T23:10:29.732Z,97247.94
2023-03-16T23:15:39.385Z,97245.28
2023-03-16T23:20:44.195Z,97234.38
2023-03-16T23:25:49.465Z,97229.03
2023-03-16T23:30:52.902Z,97227.22
2023-03-16T23:35:57.557Z,97225.06
2023-03-16T23:41:01.025Z,97216.09
2023-03-16T23:46:05.967Z,97217.75
2023-03-16T23:51:20.411Z,97222.13
2023-03-16T23:56:24.391Z,97215.38
